This is the latest recevied weather packets stored in our database for station/object OK1FET-14. If no packets are shown the sender has not sent any weather packets the latest 1 day(s).
| Time | Temp. | Humidity | Pressure | Rain* | Wind** | Luminosity | Snow |
|---|---|---|---|---|---|---|---|
| 1778081606 | 18.33° C | 58% | 1006.4 hPa | - | - | - | - |
| 1778081606 | 18.33° C | 58% | 1006.4 hPa | - | - | - | - |
| 1778080768 | 18.89° C | 55% | 1006.5 hPa | - | - | - | - |
| 1778080768 | 18.89° C | 55% | 1006.5 hPa | - | - | - | - |
| 1778080764 | 18.89° C | 55% | 1006.5 hPa | - | - | - | - |
| 1778080764 | 18.89° C | 55% | 1006.5 hPa | - | - | - | - |
| 1778080764 | 18.89° C | 55% | 1006.5 hPa | - | - | - | - |
| 1778080487 | 18.89° C | 56% | 1006.5 hPa | - | - | - | - |
| 1778080483 | 18.89° C | 56% | 1006.5 hPa | - | - | - | - |
| 1778080483 | 18.89° C | 56% | 1006.5 hPa | - | - | - | - |
| 1778079641 | 20° C | 56% | 1006.5 hPa | - | - | - | - |
| 1778079365 | 20.56° C | 55% | 1006.7 hPa | - | - | - | - |
| 1778079360 | 20.56° C | 55% | 1006.7 hPa | - | - | - | - |
| 1778079360 | 20.56° C | 55% | 1006.7 hPa | - | - | - | - |
| 1778079360 | 20.56° C | 55% | 1006.7 hPa | - | - | - | - |
| 1778079079 | 21.67° C | 59% | 1006.6 hPa | - | - | - | - |
| 1778078798 | 21.11° C | 61% | 1006.7 hPa | - | - | - | - |
| 1778078798 | 21.11° C | 61% | 1006.7 hPa | - | - | - | - |
| 1778077677 | 22.22° C | 55% | 1006.9 hPa | - | - | - | - |
| 1778077677 | 22.22° C | 55% | 1006.9 hPa | - | - | - | - |
| 1778077677 | 22.22° C | 55% | 1006.9 hPa | - | - | - | - |
| 1778077115 | 26.67° C | 50% | 1006.8 hPa | - | - | - | - |
| 1778077114 | 26.67° C | 50% | 1006.8 hPa | - | - | - | - |
| 1778077114 | 26.67° C | 50% | 1006.8 hPa | - | - | - | - |
| 1778077110 | 26.67° C | 50% | 1006.8 hPa | - | - | - | - |
* Rain since midnight (hover to see other rain measurements)
** Current wind speed in m/s (hover to see current wind gust speed)